sensor_id;sensor_type;location;lat;lon;timestamp;P1;durP1;ratioP1;P2;durP2;ratioP2
73776;SDS011;62088;50.240;2.696;2023-04-06T00:01:38;17.65;;;11.57;;
73776;SDS011;62088;50.240;2.696;2023-04-06T00:04:05;14.95;;;9.82;;
73776;SDS011;62088;50.240;2.696;2023-04-06T00:06:33;20.58;;;11.20;;
73776;SDS011;62088;50.240;2.696;2023-04-06T00:09:00;18.17;;;10.85;;
73776;SDS011;62088;50.240;2.696;2023-04-06T00:11:27;16.85;;;6.43;;
73776;SDS011;62088;50.240;2.696;2023-04-06T00:13:54;15.93;;;10.43;;
73776;SDS011;62088;50.240;2.696;2023-04-06T00:16:21;17.42;;;11.20;;
73776;SDS011;62088;50.240;2.696;2023-04-06T00:18:50;15.35;;;10.18;;
73776;SDS011;62088;50.240;2.696;2023-04-06T00:21:17;16.90;;;11.52;;
73776;SDS011;62088;50.240;2.696;2023-04-06T00:23:44;17.50;;;10.55;;
73776;SDS011;62088;50.240;2.696;2023-04-06T00:26:11;14.70;;;9.77;;
73776;SDS011;62088;50.240;2.696;2023-04-06T00:28:43;16.27;;;10.52;;
73776;SDS011;62088;50.240;2.696;2023-04-06T00:31:10;14.48;;;6.13;;
73776;SDS011;62088;50.240;2.696;2023-04-06T00:33:37;17.50;;;11.25;;
73776;SDS011;62088;50.240;2.696;2023-04-06T00:36:04;19.50;;;11.52;;
73776;SDS011;62088;50.240;2.696;2023-04-06T00:38:32;12.38;;;6.47;;
73776;SDS011;62088;50.240;2.696;2023-04-06T00:40:59;11.10;;;5.90;;
73776;SDS011;62088;50.240;2.696;2023-04-06T00:43:26;16.23;;;10.68;;
73776;SDS011;62088;50.240;2.696;2023-04-06T00:45:53;15.32;;;10.63;;
73776;SDS011;62088;50.240;2.696;2023-04-06T00:48:20;15.80;;;10.30;;
73776;SDS011;62088;50.240;2.696;2023-04-06T00:50:47;16.58;;;10.00;;
73776;SDS011;62088;50.240;2.696;2023-04-06T00:53:15;14.77;;;6.32;;
73776;SDS011;62088;50.240;2.696;2023-04-06T00:55:42;15.85;;;10.63;;
73776;SDS011;62088;50.240;2.696;2023-04-06T00:58:10;17.30;;;11.13;;
73776;SDS011;62088;50.240;2.696;2023-04-06T01:00:45;14.48;;;10.07;;
73776;SDS011;62088;50.240;2.696;2023-04-06T01:03:16;13.07;;;6.18;;
73776;SDS011;62088;50.240;2.696;2023-04-06T01:05:43;15.90;;;10.55;;
73776;SDS011;62088;50.240;2.696;2023-04-06T01:08:18;17.80;;;10.32;;
73776;SDS011;62088;50.240;2.696;2023-04-06T01:10:45;12.27;;;6.18;;
73776;SDS011;62088;50.240;2.696;2023-04-06T01:13:27;10.93;;;5.15;;
73776;SDS011;62088;50.240;2.696;2023-04-06T01:15:59;16.08;;;9.75;;
73776;SDS011;62088;50.240;2.696;2023-04-06T01:18:33;17.52;;;10.07;;
73776;SDS011;62088;50.240;2.696;2023-04-06T01:21:15;9.63;;;5.20;;
73776;SDS011;62088;50.240;2.696;2023-04-06T01:24:05;11.38;;;5.57;;
73776;SDS011;62088;50.240;2.696;2023-04-06T01:26:46;14.57;;;8.93;;
73776;SDS011;62088;50.240;2.696;2023-04-06T01:29:13;15.43;;;9.25;;
73776;SDS011;62088;50.240;2.696;2023-04-06T01:31:41;15.35;;;9.93;;
73776;SDS011;62088;50.240;2.696;2023-04-06T01:34:10;15.90;;;9.80;;
73776;SDS011;62088;50.240;2.696;2023-04-06T01:36:37;11.73;;;5.82;;
73776;SDS011;62088;50.240;2.696;2023-04-06T01:39:19;15.98;;;10.32;;
73776;SDS011;62088;50.240;2.696;2023-04-06T01:41:46;17.40;;;10.77;;
73776;SDS011;62088;50.240;2.696;2023-04-06T01:44:18;16.92;;;6.40;;
73776;SDS011;62088;50.240;2.696;2023-04-06T01:46:51;16.90;;;10.38;;
73776;SDS011;62088;50.240;2.696;2023-04-06T01:49:18;11.90;;;5.63;;
73776;SDS011;62088;50.240;2.696;2023-04-06T01:51:51;15.52;;;9.80;;
73776;SDS011;62088;50.240;2.696;2023-04-06T01:54:19;15.45;;;10.32;;
73776;SDS011;62088;50.240;2.696;2023-04-06T01:57:06;14.90;;;9.85;;
73776;SDS011;62088;50.240;2.696;2023-04-06T01:59:41;14.00;;;9.48;;
73776;SDS011;62088;50.240;2.696;2023-04-06T02:02:17;12.85;;;6.53;;
73776;SDS011;62088;50.240;2.696;2023-04-06T02:04:53;13.50;;;8.68;;
73776;SDS011;62088;50.240;2.696;2023-04-06T02:07:21;12.40;;;6.25;;
73776;SDS011;62088;50.240;2.696;2023-04-06T02:09:48;13.88;;;8.85;;
73776;SDS011;62088;50.240;2.696;2023-04-06T02:12:23;16.67;;;6.93;;
73776;SDS011;62088;50.240;2.696;2023-04-06T02:14:51;15.23;;;9.38;;
73776;SDS011;62088;50.240;2.696;2023-04-06T02:17:18;9.85;;;5.70;;
73776;SDS011;62088;50.240;2.696;2023-04-06T02:19:46;12.35;;;6.07;;
73776;SDS011;62088;50.240;2.696;2023-04-06T02:22:13;15.88;;;9.55;;
73776;SDS011;62088;50.240;2.696;2023-04-06T02:24:40;7.97;;;4.80;;
73776;SDS011;62088;50.240;2.696;2023-04-06T02:27:07;15.18;;;10.00;;
73776;SDS011;62088;50.240;2.696;2023-04-06T02:29:34;17.38;;;10.48;;
73776;SDS011;62088;50.240;2.696;2023-04-06T02:32:02;15.85;;;9.00;;
73776;SDS011;62088;50.240;2.696;2023-04-06T02:34:31;13.35;;;9.20;;
73776;SDS011;62088;50.240;2.696;2023-04-06T02:36:58;13.88;;;9.13;;
73776;SDS011;62088;50.240;2.696;2023-04-06T02:39:25;13.98;;;8.63;;
73776;SDS011;62088;50.240;2.696;2023-04-06T02:41:53;11.73;;;7.75;;
73776;SDS011;62088;50.240;2.696;2023-04-06T02:44:23;12.25;;;5.10;;
73776;SDS011;62088;50.240;2.696;2023-04-06T02:46:50;12.68;;;8.82;;
73776;SDS011;62088;50.240;2.696;2023-04-06T02:49:17;15.52;;;9.35;;
73776;SDS011;62088;50.240;2.696;2023-04-06T02:51:44;12.88;;;5.68;;
73776;SDS011;62088;50.240;2.696;2023-04-06T02:54:19;16.25;;;9.38;;
73776;SDS011;62088;50.240;2.696;2023-04-06T02:56:46;14.45;;;8.45;;
73776;SDS011;62088;50.240;2.696;2023-04-06T02:59:13;16.42;;;9.30;;
73776;SDS011;62088;50.240;2.696;2023-04-06T03:01:47;13.85;;;8.23;;
73776;SDS011;62088;50.240;2.696;2023-04-06T03:04:14;14.68;;;9.10;;
73776;SDS011;62088;50.240;2.696;2023-04-06T03:06:42;15.75;;;8.43;;
73776;SDS011;62088;50.240;2.696;2023-04-06T03:09:19;9.35;;;4.32;;
73776;SDS011;62088;50.240;2.696;2023-04-06T03:11:46;11.77;;;4.90;;
73776;SDS011;62088;50.240;2.696;2023-04-06T03:14:13;14.25;;;8.73;;
73776;SDS011;62088;50.240;2.696;2023-04-06T03:16:41;13.27;;;7.90;;
73776;SDS011;62088;50.240;2.696;2023-04-06T03:19:08;8.70;;;4.45;;
73776;SDS011;62088;50.240;2.696;2023-04-06T03:21:36;9.90;;;4.72;;
73776;SDS011;62088;50.240;2.696;2023-04-06T03:24:03;8.68;;;4.35;;
73776;SDS011;62088;50.240;2.696;2023-04-06T03:26:30;13.13;;;8.30;;
73776;SDS011;62088;50.240;2.696;2023-04-06T03:29:02;10.32;;;5.88;;
73776;SDS011;62088;50.240;2.696;2023-04-06T03:31:30;14.68;;;8.18;;
73776;SDS011;62088;50.240;2.696;2023-04-06T03:34:20;15.95;;;9.30;;
73776;SDS011;62088;50.240;2.696;2023-04-06T03:36:47;15.38;;;8.68;;
73776;SDS011;62088;50.240;2.696;2023-04-06T03:39:32;13.25;;;8.30;;
73776;SDS011;62088;50.240;2.696;2023-04-06T03:42:00;16.20;;;9.20;;
73776;SDS011;62088;50.240;2.696;2023-04-06T03:44:33;11.87;;;6.37;;
73776;SDS011;62088;50.240;2.696;2023-04-06T03:47:00;9.40;;;5.43;;
73776;SDS011;62088;50.240;2.696;2023-04-06T03:49:29;13.23;;;9.15;;
73776;SDS011;62088;50.240;2.696;2023-04-06T03:51:57;14.25;;;8.13;;
73776;SDS011;62088;50.240;2.696;2023-04-06T03:54:24;9.70;;;4.95;;
73776;SDS011;62088;50.240;2.696;2023-04-06T03:56:51;14.75;;;9.15;;
73776;SDS011;62088;50.240;2.696;2023-04-06T03:59:18;10.38;;;4.90;;
73776;SDS011;62088;50.240;2.696;2023-04-06T04:01:45;15.55;;;8.43;;
73776;SDS011;62088;50.240;2.696;2023-04-06T04:04:12;8.82;;;4.68;;
73776;SDS011;62088;50.240;2.696;2023-04-06T04:06:39;11.48;;;5.68;;
73776;SDS011;62088;50.240;2.696;2023-04-06T04:09:07;12.43;;;6.43;;
73776;SDS011;62088;50.240;2.696;2023-04-06T04:11:34;14.80;;;8.32;;
73776;SDS011;62088;50.240;2.696;2023-04-06T04:14:01;9.38;;;5.05;;
73776;SDS011;62088;50.240;2.696;2023-04-06T04:16:28;14.30;;;8.55;;
73776;SDS011;62088;50.240;2.696;2023-04-06T04:18:56;14.95;;;8.45;;
73776;SDS011;62088;50.240;2.696;2023-04-06T04:21:25;10.68;;;4.72;;
73776;SDS011;62088;50.240;2.696;2023-04-06T04:23:52;10.50;;;4.75;;
73776;SDS011;62088;50.240;2.696;2023-04-06T04:26:19;13.52;;;7.88;;
73776;SDS011;62088;50.240;2.696;2023-04-06T04:28:46;11.93;;;4.97;;
73776;SDS011;62088;50.240;2.696;2023-04-06T04:31:14;16.33;;;9.23;;
73776;SDS011;62088;50.240;2.696;2023-04-06T04:33:41;11.65;;;7.00;;
73776;SDS011;62088;50.240;2.696;2023-04-06T04:36:14;14.48;;;8.82;;
73776;SDS011;62088;50.240;2.696;2023-04-06T04:38:42;13.40;;;8.27;;
73776;SDS011;62088;50.240;2.696;2023-04-06T04:41:10;9.32;;;4.95;;
73776;SDS011;62088;50.240;2.696;2023-04-06T04:43:40;11.48;;;5.82;;
73776;SDS011;62088;50.240;2.696;2023-04-06T04:46:08;14.75;;;8.38;;
73776;SDS011;62088;50.240;2.696;2023-04-06T04:48:39;15.43;;;9.02;;
73776;SDS011;62088;50.240;2.696;2023-04-06T04:51:07;13.95;;;8.25;;
73776;SDS011;62088;50.240;2.696;2023-04-06T04:53:57;9.65;;;4.80;;
73776;SDS011;62088;50.240;2.696;2023-04-06T04:56:28;9.05;;;5.40;;
73776;SDS011;62088;50.240;2.696;2023-04-06T04:59:04;12.60;;;7.72;;
73776;SDS011;62088;50.240;2.696;2023-04-06T05:01:35;11.27;;;5.38;;
73776;SDS011;62088;50.240;2.696;2023-04-06T05:04:21;11.75;;;5.22;;
73776;SDS011;62088;50.240;2.696;2023-04-06T05:07:02;12.55;;;7.60;;
73776;SDS011;62088;50.240;2.696;2023-04-06T05:09:30;12.32;;;5.53;;
73776;SDS011;62088;50.240;2.696;2023-04-06T05:11:58;9.60;;;4.78;;
73776;SDS011;62088;50.240;2.696;2023-04-06T05:14:28;10.70;;;5.53;;
73776;SDS011;62088;50.240;2.696;2023-04-06T05:16:56;10.55;;;5.28;;
73776;SDS011;62088;50.240;2.696;2023-04-06T05:19:25;12.15;;;6.07;;
73776;SDS011;62088;50.240;2.696;2023-04-06T05:21:52;11.07;;;5.25;;
73776;SDS011;62088;50.240;2.696;2023-04-06T05:24:19;14.40;;;9.05;;
73776;SDS011;62088;50.240;2.696;2023-04-06T05:26:47;10.38;;;5.05;;
73776;SDS011;62088;50.240;2.696;2023-04-06T05:29:20;16.33;;;9.50;;
73776;SDS011;62088;50.240;2.696;2023-04-06T05:31:48;11.20;;;5.75;;
73776;SDS011;62088;50.240;2.696;2023-04-06T05:34:15;13.13;;;6.43;;
73776;SDS011;62088;50.240;2.696;2023-04-06T05:36:42;11.10;;;5.90;;
73776;SDS011;62088;50.240;2.696;2023-04-06T05:39:22;12.32;;;6.60;;
73776;SDS011;62088;50.240;2.696;2023-04-06T05:41:51;18.63;;;11.27;;
73776;SDS011;62088;50.240;2.696;2023-04-06T05:44:30;13.52;;;7.00;;
73776;SDS011;62088;50.240;2.696;2023-04-06T05:47:07;18.58;;;11.85;;
73776;SDS011;62088;50.240;2.696;2023-04-06T05:49:36;11.57;;;7.07;;
73776;SDS011;62088;50.240;2.696;2023-04-06T05:52:07;18.95;;;13.00;;
73776;SDS011;62088;50.240;2.696;2023-04-06T05:54:35;13.45;;;7.18;;
73776;SDS011;62088;50.240;2.696;2023-04-06T05:57:04;16.20;;;7.40;;
73776;SDS011;62088;50.240;2.696;2023-04-06T05:59:31;20.10;;;13.85;;
73776;SDS011;62088;50.240;2.696;2023-04-06T06:01:59;14.48;;;8.25;;
73776;SDS011;62088;50.240;2.696;2023-04-06T06:04:31;18.92;;;11.98;;
73776;SDS011;62088;50.240;2.696;2023-04-06T06:06:58;16.00;;;9.23;;
73776;SDS011;62088;50.240;2.696;2023-04-06T06:09:34;15.50;;;8.73;;
73776;SDS011;62088;50.240;2.696;2023-04-06T06:12:19;15.85;;;10.25;;
73776;SDS011;62088;50.240;2.696;2023-04-06T06:14:48;18.20;;;13.38;;
73776;SDS011;62088;50.240;2.696;2023-04-06T06:17:15;22.38;;;16.67;;
73776;SDS011;62088;50.240;2.696;2023-04-06T06:19:45;13.73;;;8.80;;
73776;SDS011;62088;50.240;2.696;2023-04-06T06:22:12;15.98;;;9.93;;
73776;SDS011;62088;50.240;2.696;2023-04-06T06:24:43;16.17;;;10.52;;
73776;SDS011;62088;50.240;2.696;2023-04-06T06:27:11;18.98;;;10.23;;
73776;SDS011;62088;50.240;2.696;2023-04-06T06:29:38;27.17;;;19.13;;
73776;SDS011;62088;50.240;2.696;2023-04-06T06:32:05;16.98;;;10.75;;
73776;SDS011;62088;50.240;2.696;2023-04-06T06:34:32;26.77;;;19.52;;
73776;SDS011;62088;50.240;2.696;2023-04-06T06:37:02;19.20;;;11.32;;
73776;SDS011;62088;50.240;2.696;2023-04-06T06:39:30;19.90;;;10.55;;
73776;SDS011;62088;50.240;2.696;2023-04-06T06:41:57;24.08;;;14.65;;
73776;SDS011;62088;50.240;2.696;2023-04-06T06:44:47;22.35;;;14.00;;
73776;SDS011;62088;50.240;2.696;2023-04-06T06:47:14;19.00;;;11.32;;
73776;SDS011;62088;50.240;2.696;2023-04-06T06:49:43;27.85;;;20.42;;
73776;SDS011;62088;50.240;2.696;2023-04-06T06:52:10;17.65;;;11.75;;
73776;SDS011;62088;50.240;2.696;2023-04-06T06:54:37;19.92;;;10.98;;
73776;SDS011;62088;50.240;2.696;2023-04-06T06:57:04;27.92;;;20.38;;
73776;SDS011;62088;50.240;2.696;2023-04-06T06:59:31;18.65;;;10.95;;
73776;SDS011;62088;50.240;2.696;2023-04-06T07:01:59;23.70;;;13.65;;
73776;SDS011;62088;50.240;2.696;2023-04-06T07:04:26;25.48;;;20.08;;
73776;SDS011;62088;50.240;2.696;2023-04-06T07:06:53;24.75;;;10.98;;
73776;SDS011;62088;50.240;2.696;2023-04-06T07:09:20;14.77;;;9.75;;
73776;SDS011;62088;50.240;2.696;2023-04-06T07:11:48;26.60;;;20.90;;
73776;SDS011;62088;50.240;2.696;2023-04-06T07:14:15;18.13;;;11.13;;
73776;SDS011;62088;50.240;2.696;2023-04-06T07:16:43;18.23;;;11.07;;
73776;SDS011;62088;50.240;2.696;2023-04-06T07:19:11;19.45;;;13.15;;
73776;SDS011;62088;50.240;2.696;2023-04-06T07:21:38;28.42;;;21.35;;
73776;SDS011;62088;50.240;2.696;2023-04-06T07:24:05;19.35;;;12.77;;
73776;SDS011;62088;50.240;2.696;2023-04-06T07:26:33;17.30;;;11.85;;
73776;SDS011;62088;50.240;2.696;2023-04-06T07:29:00;27.33;;;21.88;;
73776;SDS011;62088;50.240;2.696;2023-04-06T07:31:27;22.40;;;10.85;;
73776;SDS011;62088;50.240;2.696;2023-04-06T07:33:54;30.38;;;21.85;;
73776;SDS011;62088;50.240;2.696;2023-04-06T07:36:22;17.33;;;11.85;;
73776;SDS011;62088;50.240;2.696;2023-04-06T07:38:49;33.72;;;23.05;;
73776;SDS011;62088;50.240;2.696;2023-04-06T07:41:17;17.95;;;10.40;;
73776;SDS011;62088;50.240;2.696;2023-04-06T07:43:44;32.70;;;23.02;;
73776;SDS011;62088;50.240;2.696;2023-04-06T07:46:11;19.33;;;11.65;;
73776;SDS011;62088;50.240;2.696;2023-04-06T07:48:38;29.00;;;21.38;;
73776;SDS011;62088;50.240;2.696;2023-04-06T07:51:06;22.17;;;14.95;;
73776;SDS011;62088;50.240;2.696;2023-04-06T07:53:37;20.63;;;11.10;;
73776;SDS011;62088;50.240;2.696;2023-04-06T07:56:04;17.63;;;11.40;;
73776;SDS011;62088;50.240;2.696;2023-04-06T07:58:31;28.10;;;23.00;;
73776;SDS011;62088;50.240;2.696;2023-04-06T08:00:58;18.35;;;10.43;;
73776;SDS011;62088;50.240;2.696;2023-04-06T08:03:25;28.45;;;22.02;;
73776;SDS011;62088;50.240;2.696;2023-04-06T08:05:53;30.52;;;23.02;;
73776;SDS011;62088;50.240;2.696;2023-04-06T08:08:20;19.02;;;11.27;;
73776;SDS011;62088;50.240;2.696;2023-04-06T08:10:48;28.83;;;22.50;;
73776;SDS011;62088;50.240;2.696;2023-04-06T08:13:15;20.40;;;11.52;;
73776;SDS011;62088;50.240;2.696;2023-04-06T08:15:42;29.48;;;22.65;;
73776;SDS011;62088;50.240;2.696;2023-04-06T08:18:09;27.92;;;19.40;;
73776;SDS011;62088;50.240;2.696;2023-04-06T08:20:37;22.23;;;14.93;;
73776;SDS011;62088;50.240;2.696;2023-04-06T08:23:04;26.10;;;14.38;;
73776;SDS011;62088;50.240;2.696;2023-04-06T08:25:34;29.52;;;21.70;;
73776;SDS011;62088;50.240;2.696;2023-04-06T08:28:02;30.52;;;22.98;;
73776;SDS011;62088;50.240;2.696;2023-04-06T08:30:30;17.48;;;11.15;;
73776;SDS011;62088;50.240;2.696;2023-04-06T08:32:57;26.42;;;22.23;;
73776;SDS011;62088;50.240;2.696;2023-04-06T08:35:24;21.85;;;14.45;;
73776;SDS011;62088;50.240;2.696;2023-04-06T08:37:52;16.15;;;10.57;;
73776;SDS011;62088;50.240;2.696;2023-04-06T08:40:19;29.73;;;20.52;;
73776;SDS011;62088;50.240;2.696;2023-04-06T08:42:50;19.17;;;9.88;;
73776;SDS011;62088;50.240;2.696;2023-04-06T08:45:26;24.67;;;17.90;;
73776;SDS011;62088;50.240;2.696;2023-04-06T08:47:53;29.10;;;22.15;;
73776;SDS011;62088;50.240;2.696;2023-04-06T08:50:23;20.25;;;12.18;;
73776;SDS011;62088;50.240;2.696;2023-04-06T08:52:51;25.00;;;19.92;;
73776;SDS011;62088;50.240;2.696;2023-04-06T08:55:18;29.27;;;20.65;;
73776;SDS011;62088;50.240;2.696;2023-04-06T08:57:45;14.93;;;10.10;;
73776;SDS011;62088;50.240;2.696;2023-04-06T09:00:13;25.67;;;19.83;;
73776;SDS011;62088;50.240;2.696;2023-04-06T09:02:43;24.25;;;19.13;;
73776;SDS011;62088;50.240;2.696;2023-04-06T09:05:13;23.75;;;18.55;;
73776;SDS011;62088;50.240;2.696;2023-04-06T09:07:41;14.45;;;8.40;;
73776;SDS011;62088;50.240;2.696;2023-04-06T09:10:08;20.90;;;15.68;;
73776;SDS011;62088;50.240;2.696;2023-04-06T09:12:35;19.92;;;16.17;;
73776;SDS011;62088;50.240;2.696;2023-04-06T09:15:02;17.95;;;10.88;;
73776;SDS011;62088;50.240;2.696;2023-04-06T09:17:33;21.25;;;15.75;;
73776;SDS011;62088;50.240;2.696;2023-04-06T09:20:00;14.02;;;8.50;;
73776;SDS011;62088;50.240;2.696;2023-04-06T09:22:38;21.52;;;15.07;;
73776;SDS011;62088;50.240;2.696;2023-04-06T09:25:06;22.42;;;16.35;;
73776;SDS011;62088;50.240;2.696;2023-04-06T09:27:35;21.50;;;16.45;;
73776;SDS011;62088;50.240;2.696;2023-04-06T09:32:31;22.58;;;15.80;;
73776;SDS011;62088;50.240;2.696;2023-04-06T09:35:05;15.45;;;9.35;;
73776;SDS011;62088;50.240;2.696;2023-04-06T09:37:36;22.50;;;16.98;;
73776;SDS011;62088;50.240;2.696;2023-04-06T09:40:05;13.45;;;8.82;;
73776;SDS011;62088;50.240;2.696;2023-04-06T09:42:34;22.02;;;15.57;;
73776;SDS011;62088;50.240;2.696;2023-04-06T09:45:02;20.70;;;15.57;;
73776;SDS011;62088;50.240;2.696;2023-04-06T09:47:32;22.92;;;16.40;;
73776;SDS011;62088;50.240;2.696;2023-04-06T09:50:02;21.65;;;15.25;;
73776;SDS011;62088;50.240;2.696;2023-04-06T09:52:33;20.85;;;15.82;;
73776;SDS011;62088;50.240;2.696;2023-04-06T09:55:04;20.58;;;16.20;;
73776;SDS011;62088;50.240;2.696;2023-04-06T09:57:40;21.35;;;15.98;;
73776;SDS011;62088;50.240;2.696;2023-04-06T10:00:11;20.95;;;15.43;;
73776;SDS011;62088;50.240;2.696;2023-04-06T10:05:40;19.52;;;14.35;;
73776;SDS011;62088;50.240;2.696;2023-04-06T10:08:12;11.27;;;7.75;;
73776;SDS011;62088;50.240;2.696;2023-04-06T10:10:40;18.67;;;14.43;;
73776;SDS011;62088;50.240;2.696;2023-04-06T10:13:09;19.80;;;14.15;;
73776;SDS011;62088;50.240;2.696;2023-04-06T10:15:37;20.17;;;15.10;;
73776;SDS011;62088;50.240;2.696;2023-04-06T10:18:06;17.45;;;13.80;;
73776;SDS011;62088;50.240;2.696;2023-04-06T10:23:29;20.25;;;15.43;;
73776;SDS011;62088;50.240;2.696;2023-04-06T10:26:01;18.60;;;14.07;;
73776;SDS011;62088;50.240;2.696;2023-04-06T10:28:33;21.52;;;13.80;;
73776;SDS011;62088;50.240;2.696;2023-04-06T10:31:05;17.52;;;13.60;;
73776;SDS011;62088;50.240;2.696;2023-04-06T10:33:33;12.48;;;7.13;;
73776;SDS011;62088;50.240;2.696;2023-04-06T10:38:41;14.57;;;11.52;;
73776;SDS011;62088;50.240;2.696;2023-04-06T10:41:09;15.63;;;11.27;;
73776;SDS011;62088;50.240;2.696;2023-04-06T10:43:38;13.18;;;9.98;;
73776;SDS011;62088;50.240;2.696;2023-04-06T10:46:07;14.32;;;10.05;;
73776;SDS011;62088;50.240;2.696;2023-04-06T10:48:40;13.13;;;9.50;;
73776;SDS011;62088;50.240;2.696;2023-04-06T10:51:12;11.70;;;8.95;;
73776;SDS011;62088;50.240;2.696;2023-04-06T10:53:41;12.32;;;9.38;;
73776;SDS011;62088;50.240;2.696;2023-04-06T10:56:16;12.43;;;9.15;;
73776;SDS011;62088;50.240;2.696;2023-04-06T10:58:47;13.70;;;9.38;;
73776;SDS011;62088;50.240;2.696;2023-04-06T11:01:16;11.75;;;9.07;;
73776;SDS011;62088;50.240;2.696;2023-04-06T11:03:45;14.35;;;9.80;;
73776;SDS011;62088;50.240;2.696;2023-04-06T11:06:23;15.38;;;11.60;;
73776;SDS011;62088;50.240;2.696;2023-04-06T11:08:55;14.32;;;11.15;;
73776;SDS011;62088;50.240;2.696;2023-04-06T11:11:25;12.27;;;9.77;;
73776;SDS011;62088;50.240;2.696;2023-04-06T11:16:22;13.70;;;10.48;;
73776;SDS011;62088;50.240;2.696;2023-04-06T11:18:54;16.17;;;11.05;;
73776;SDS011;62088;50.240;2.696;2023-04-06T11:21:39;16.65;;;10.63;;
73776;SDS011;62088;50.240;2.696;2023-04-06T11:24:18;14.50;;;10.75;;
73776;SDS011;62088;50.240;2.696;2023-04-06T11:29:23;16.65;;;10.65;;
73776;SDS011;62088;50.240;2.696;2023-04-06T11:32:02;12.98;;;9.70;;
73776;SDS011;62088;50.240;2.696;2023-04-06T11:34:32;13.02;;;10.45;;
73776;SDS011;62088;50.240;2.696;2023-04-06T11:37:04;17.67;;;11.27;;
73776;SDS011;62088;50.240;2.696;2023-04-06T11:39:43;15.13;;;9.63;;
73776;SDS011;62088;50.240;2.696;2023-04-06T11:42:24;16.10;;;9.82;;
73776;SDS011;62088;50.240;2.696;2023-04-06T11:44:59;12.65;;;8.52;;
73776;SDS011;62088;50.240;2.696;2023-04-06T11:47:30;17.17;;;7.60;;
73776;SDS011;62088;50.240;2.696;2023-04-06T11:52:38;13.25;;;7.13;;
73776;SDS011;62088;50.240;2.696;2023-04-06T11:55:10;10.85;;;5.20;;
73776;SDS011;62088;50.240;2.696;2023-04-06T11:57:44;14.82;;;5.60;;
73776;SDS011;62088;50.240;2.696;2023-04-06T12:00:11;10.18;;;3.88;;
73776;SDS011;62088;50.240;2.696;2023-04-06T12:02:39;7.90;;;3.88;;
73776;SDS011;62088;50.240;2.696;2023-04-06T12:05:12;14.35;;;3.33;;
73776;SDS011;62088;50.240;2.696;2023-04-06T12:07:39;10.18;;;3.10;;
73776;SDS011;62088;50.240;2.696;2023-04-06T12:10:07;13.07;;;2.97;;
73776;SDS011;62088;50.240;2.696;2023-04-06T12:12:34;11.18;;;2.45;;
73776;SDS011;62088;50.240;2.696;2023-04-06T12:15:01;7.78;;;2.75;;
73776;SDS011;62088;50.240;2.696;2023-04-06T12:17:29;10.07;;;3.00;;
73776;SDS011;62088;50.240;2.696;2023-04-06T12:19:56;10.02;;;2.55;;
73776;SDS011;62088;50.240;2.696;2023-04-06T12:22:34;9.10;;;2.17;;
73776;SDS011;62088;50.240;2.696;2023-04-06T12:25:02;8.88;;;1.70;;
73776;SDS011;62088;50.240;2.696;2023-04-06T12:27:29;8.98;;;2.30;;
73776;SDS011;62088;50.240;2.696;2023-04-06T12:29:56;12.55;;;2.75;;
73776;SDS011;62088;50.240;2.696;2023-04-06T12:32:24;10.18;;;2.05;;
73776;SDS011;62088;50.240;2.696;2023-04-06T12:34:52;7.68;;;2.25;;
73776;SDS011;62088;50.240;2.696;2023-04-06T12:37:19;13.75;;;3.13;;
73776;SDS011;62088;50.240;2.696;2023-04-06T12:39:46;9.85;;;2.10;;
73776;SDS011;62088;50.240;2.696;2023-04-06T12:42:13;8.85;;;2.08;;
73776;SDS011;62088;50.240;2.696;2023-04-06T12:44:41;9.82;;;2.28;;
73776;SDS011;62088;50.240;2.696;2023-04-06T12:47:09;9.05;;;2.25;;
73776;SDS011;62088;50.240;2.696;2023-04-06T12:49:37;8.65;;;1.75;;
73776;SDS011;62088;50.240;2.696;2023-04-06T12:52:04;12.00;;;2.05;;
73776;SDS011;62088;50.240;2.696;2023-04-06T12:54:31;7.75;;;2.03;;
73776;SDS011;62088;50.240;2.696;2023-04-06T12:56:58;12.50;;;2.45;;
73776;SDS011;62088;50.240;2.696;2023-04-06T12:59:27;10.45;;;2.30;;
73776;SDS011;62088;50.240;2.696;2023-04-06T13:01:57;7.32;;;2.13;;
73776;SDS011;62088;50.240;2.696;2023-04-06T13:04:24;14.07;;;2.42;;
73776;SDS011;62088;50.240;2.696;2023-04-06T13:06:52;8.23;;;1.75;;
73776;SDS011;62088;50.240;2.696;2023-04-06T13:09:19;8.73;;;2.33;;
73776;SDS011;62088;50.240;2.696;2023-04-06T13:11:47;10.77;;;1.80;;
73776;SDS011;62088;50.240;2.696;2023-04-06T13:14:14;11.13;;;2.00;;
73776;SDS011;62088;50.240;2.696;2023-04-06T13:16:41;9.40;;;2.30;;
73776;SDS011;62088;50.240;2.696;2023-04-06T13:19:09;13.27;;;2.38;;
73776;SDS011;62088;50.240;2.696;2023-04-06T13:21:37;9.45;;;2.10;;
73776;SDS011;62088;50.240;2.696;2023-04-06T13:24:04;10.10;;;2.35;;
73776;SDS011;62088;50.240;2.696;2023-04-06T13:26:31;8.30;;;2.00;;
73776;SDS011;62088;50.240;2.696;2023-04-06T13:28:59;10.50;;;2.55;;
73776;SDS011;62088;50.240;2.696;2023-04-06T13:31:27;7.97;;;2.75;;
73776;SDS011;62088;50.240;2.696;2023-04-06T13:33:55;9.82;;;2.55;;
73776;SDS011;62088;50.240;2.696;2023-04-06T13:36:22;11.82;;;2.63;;
73776;SDS011;62088;50.240;2.696;2023-04-06T13:38:49;10.25;;;2.13;;
73776;SDS011;62088;50.240;2.696;2023-04-06T13:41:20;13.68;;;2.85;;
73776;SDS011;62088;50.240;2.696;2023-04-06T13:43:49;8.98;;;2.47;;
73776;SDS011;62088;50.240;2.696;2023-04-06T13:46:16;13.45;;;2.58;;
73776;SDS011;62088;50.240;2.696;2023-04-06T13:48:43;10.85;;;2.75;;
73776;SDS011;62088;50.240;2.696;2023-04-06T13:51:11;8.13;;;2.38;;
73776;SDS011;62088;50.240;2.696;2023-04-06T13:53:39;9.20;;;2.35;;
73776;SDS011;62088;50.240;2.696;2023-04-06T13:56:07;11.23;;;2.97;;
73776;SDS011;62088;50.240;2.696;2023-04-06T13:58:35;12.80;;;2.65;;
73776;SDS011;62088;50.240;2.696;2023-04-06T14:01:06;10.00;;;2.70;;
73776;SDS011;62088;50.240;2.696;2023-04-06T14:03:37;12.82;;;3.33;;
73776;SDS011;62088;50.240;2.696;2023-04-06T14:06:09;8.75;;;2.42;;
73776;SDS011;62088;50.240;2.696;2023-04-06T14:08:56;10.15;;;2.85;;
73776;SDS011;62088;50.240;2.696;2023-04-06T14:11:23;15.02;;;2.97;;
73776;SDS011;62088;50.240;2.696;2023-04-06T14:13:50;9.10;;;2.03;;
73776;SDS011;62088;50.240;2.696;2023-04-06T14:16:17;14.18;;;3.33;;
73776;SDS011;62088;50.240;2.696;2023-04-06T14:18:46;15.35;;;2.88;;
73776;SDS011;62088;50.240;2.696;2023-04-06T14:21:13;13.63;;;3.00;;
73776;SDS011;62088;50.240;2.696;2023-04-06T14:23:41;9.23;;;2.47;;
73776;SDS011;62088;50.240;2.696;2023-04-06T14:26:08;11.68;;;2.80;;
73776;SDS011;62088;50.240;2.696;2023-04-06T14:28:35;14.48;;;2.88;;
73776;SDS011;62088;50.240;2.696;2023-04-06T14:31:09;11.32;;;2.88;;
73776;SDS011;62088;50.240;2.696;2023-04-06T14:33:38;13.80;;;3.03;;
73776;SDS011;62088;50.240;2.696;2023-04-06T14:36:06;13.60;;;3.40;;
73776;SDS011;62088;50.240;2.696;2023-04-06T14:38:34;12.52;;;3.17;;
73776;SDS011;62088;50.240;2.696;2023-04-06T14:41:01;11.57;;;3.80;;
73776;SDS011;62088;50.240;2.696;2023-04-06T14:43:29;13.65;;;3.20;;
73776;SDS011;62088;50.240;2.696;2023-04-06T14:45:59;12.88;;;2.88;;
73776;SDS011;62088;50.240;2.696;2023-04-06T14:48:27;9.07;;;2.45;;
73776;SDS011;62088;50.240;2.696;2023-04-06T14:50:55;12.57;;;2.88;;
73776;SDS011;62088;50.240;2.696;2023-04-06T14:53:23;9.98;;;2.53;;
73776;SDS011;62088;50.240;2.696;2023-04-06T14:55:50;15.90;;;2.45;;
73776;SDS011;62088;50.240;2.696;2023-04-06T14:58:18;11.85;;;2.75;;
73776;SDS011;62088;50.240;2.696;2023-04-06T15:00:46;14.32;;;3.08;;
73776;SDS011;62088;50.240;2.696;2023-04-06T15:03:14;17.45;;;3.13;;